Time;durP1;ratioP1;P1;durP2;ratioP2;P2;SDS_P1;SDS_P2;PMS_P1;PMS_P2;Temp;Humidity;BMP_temperature;BMP_pressure;BME280_temperature;BME280_humidity;BME280_pressure;Samples;Min_cycle;Max_cycle;Signal;HPM_P1;HPM_P2
2023/09/14 00:01:54;;;;;;;21.50;6.53;;;;;;;22.51;55.91;99603.47;5075133;28;20219;-58
2023/09/14 00:04:21;;;;;;;20.30;6.03;;;;;;;22.50;56.58;99601.88;5075301;28;20199;-59
2023/09/14 00:06:49;;;;;;;14.03;5.90;;;;;;;22.51;56.77;99598.88;5074929;28;20771;-58
2023/09/14 00:09:15;;;;;;;24.00;6.60;;;;;;;22.53;56.75;99596.72;5075216;28;20277;-59
2023/09/14 00:11:43;;;;;;;24.57;6.43;;;;;;;22.50;57.15;99597.25;5075487;28;20253;-59
2023/09/14 00:14:10;;;;;;;11.00;5.40;;;;;;;22.54;57.70;99595.63;5074881;28;20251;-58
2023/09/14 00:16:37;;;;;;;16.77;5.60;;;;;;;22.59;57.66;99595.63;5075127;28;20194;-58
2023/09/14 00:19:04;;;;;;;11.90;5.63;;;;;;;22.67;58.09;99596.97;5089785;28;20278;-59
2023/09/14 00:21:31;;;;;;;13.07;5.57;;;;;;;22.73;57.91;99591.28;5093722;28;20201;-58
2023/09/14 00:23:57;;;;;;;18.70;5.97;;;;;;;22.78;57.28;99588.56;5094534;28;20280;-58
2023/09/14 00:26:24;;;;;;;12.23;5.53;;;;;;;22.78;56.96;99595.91;5094250;28;20192;-59
2023/09/14 00:28:52;;;;;;;10.27;5.73;;;;;;;22.77;56.98;99597.78;5094559;28;20228;-58
2023/09/14 00:31:19;;;;;;;20.93;5.60;;;;;;;22.76;57.21;99612.41;5094302;28;20227;-59
2023/09/14 00:33:45;;;;;;;14.83;5.50;;;;;;;22.76;57.18;99611.59;5093831;28;20189;-59
2023/09/14 00:36:12;;;;;;;15.80;5.63;;;;;;;22.71;57.57;99609.69;5094203;28;20193;-59
2023/09/14 00:38:39;;;;;;;17.10;6.10;;;;;;;22.65;57.87;99607.25;5094023;28;20192;-59
2023/09/14 00:41:05;;;;;;;15.77;5.97;;;;;;;22.57;58.14;99611.34;5094550;28;20221;-58
2023/09/14 00:43:34;;;;;;;17.20;6.37;;;;;;;22.52;58.28;99600.50;5093251;28;20207;-58
2023/09/14 00:46:02;;;;;;;12.90;5.77;;;;;;;22.47;58.65;99599.69;5094471;28;20192;-59
2023/09/14 00:48:29;;;;;;;16.90;6.13;;;;;;;22.46;58.77;99596.16;5093881;28;20216;-59
2023/09/14 00:50:56;;;;;;;12.70;5.90;;;;;;;22.45;58.53;99605.34;5094139;28;20613;-58
2023/09/14 00:53:23;;;;;;;19.73;6.67;;;;;;;22.40;59.11;99601.81;5093947;28;20796;-59
2023/09/14 00:55:50;;;;;;;14.93;6.00;;;;;;;22.32;59.46;99595.03;5093177;28;20671;-58
2023/09/14 00:58:17;;;;;;;11.57;6.70;;;;;;;22.26;59.81;99593.41;5094165;28;20195;-59
2023/09/14 01:00:45;;;;;;;14.50;6.20;;;;;;;22.28;60.06;99588.53;5093824;28;20195;-59
2023/09/14 01:03:13;;;;;;;11.60;5.40;;;;;;;22.31;60.01;99592.59;5093577;28;20225;-58
2023/09/14 01:05:40;;;;;;;7.63;5.23;;;;;;;22.33;60.17;99585.84;5093866;28;20663;-58
2023/09/14 01:08:07;;;;;;;8.80;5.70;;;;;;;22.34;60.25;99584.75;5093938;28;20215;-59
2023/09/14 01:10:33;;;;;;;6.33;4.70;;;;;;;22.30;60.75;99582.88;5094463;28;20199;-59
2023/09/14 01:13:00;;;;;;;6.37;4.30;;;;;;;22.36;60.57;99585.31;5093925;28;20732;-58
2023/09/14 01:15:32;;;;;;;9.33;5.87;;;;;;;22.39;60.30;99584.78;5094248;28;20192;-58
2023/09/14 01:18:06;;;;;;;12.97;5.47;;;;;;;22.38;60.32;99585.03;5093762;28;20644;-59
2023/09/14 01:21:06;;;;;;;8.00;5.20;;;;;;;22.24;61.56;99578.50;5093158;28;20233;-59
2023/09/14 01:23:38;;;;;;;8.37;5.20;;;;;;;22.22;61.27;99584.19;5093733;28;20788;-58
2023/09/14 01:26:07;;;;;;;8.43;5.43;;;;;;;22.20;61.42;99583.66;5093958;28;20267;-58
2023/09/14 01:28:34;;;;;;;12.83;5.33;;;;;;;22.19;61.93;99592.88;5093866;28;20297;-58
2023/09/14 01:31:00;;;;;;;9.10;5.07;;;;;;;22.22;61.83;99586.91;5093465;28;20262;-58
2023/09/14 01:33:29;;;;;;;7.93;5.33;;;;;;;22.24;61.63;99582.03;5091587;28;20631;-59
2023/09/14 01:36:02;;;;;;;9.23;5.30;;;;;;;22.23;62.02;99585.84;5091391;28;20549;-59
2023/09/14 01:38:30;;;;;;;10.80;5.73;;;;;;;22.18;62.43;99593.97;5091684;28;20215;-59
2023/09/14 01:40:58;;;;;;;8.20;5.13;;;;;;;22.11;63.01;99604.22;5092192;28;20232;-59
2023/09/14 01:43:26;;;;;;;9.97;5.60;;;;;;;22.06;63.51;99598.81;5092582;28;20686;-59
2023/09/14 01:45:54;;;;;;;10.63;5.07;;;;;;;21.96;64.12;99600.69;5092816;28;20197;-59
2023/09/14 01:48:22;;;;;;;10.10;5.73;;;;;;;21.94;64.08;99603.66;5092296;28;20647;-59
2023/09/14 01:50:49;;;;;;;5.97;4.77;;;;;;;21.90;64.29;99596.31;5092724;28;20208;-59
2023/09/14 01:53:16;;;;;;;7.10;5.70;;;;;;;21.85;64.29;99609.84;5092636;28;20192;-59
2023/09/14 01:55:42;;;;;;;17.03;6.47;;;;;;;21.82;64.73;99615.78;5092660;28;20191;-58
2023/09/14 01:58:10;;;;;;;22.57;6.30;;;;;;;21.79;65.03;99611.72;5092517;28;20211;-58
2023/09/14 02:00:38;;;;;;;11.10;5.33;;;;;;;21.72;65.53;99615.75;5093229;28;20667;-59
2023/09/14 02:03:05;;;;;;;6.13;5.53;;;;;;;21.68;65.33;99615.41;5092600;28;20248;-59
2023/09/14 02:05:32;;;;;;;6.23;5.10;;;;;;;21.65;65.63;99618.66;5091801;28;20191;-58
2023/09/14 02:07:58;;;;;;;9.00;5.83;;;;;;;21.53;66.15;99622.66;5093079;28;20273;-58
2023/09/14 02:10:25;;;;;;;12.03;5.23;;;;;;;21.46;65.32;99622.06;5093092;28;20199;-58
2023/09/14 02:12:52;;;;;;;7.90;5.90;;;;;;;21.40;66.09;99623.13;5093002;28;20241;-58
2023/09/14 02:15:19;;;;;;;10.97;5.73;;;;;;;21.30;65.21;99629.31;5092445;28;20651;-58
2023/09/14 02:17:47;;;;;;;8.43;4.83;;;;;;;21.23;64.38;99628.72;5092528;28;20240;-58
2023/09/14 02:20:14;;;;;;;6.80;5.57;;;;;;;21.14;64.69;99627.56;5092283;28;20249;-60
2023/09/14 02:22:41;;;;;;;8.13;5.10;;;;;;;21.09;63.89;99632.97;5092827;28;20195;-58
2023/09/14 02:25:08;;;;;;;11.03;4.80;;;;;;;21.04;62.62;99627.53;5092814;28;20245;-58
2023/09/14 02:27:35;;;;;;;9.97;5.20;;;;;;;20.89;62.78;99627.38;5092424;28;20223;-58
2023/09/14 02:30:03;;;;;;;6.53;5.37;;;;;;;20.82;63.53;99628.69;5092348;28;20195;-59
2023/09/14 02:32:29;;;;;;;6.47;5.60;;;;;;;20.85;63.75;99620.88;5091652;28;20235;-58
2023/09/14 02:34:57;;;;;;;8.47;5.60;;;;;;;20.76;63.69;99633.22;5091456;28;20249;-59
2023/09/14 02:37:24;;;;;;;8.13;4.80;;;;;;;20.76;63.67;99635.94;5091774;28;20188;-59
2023/09/14 02:39:51;;;;;;;9.20;5.03;;;;;;;20.79;63.63;99635.44;5091479;28;20196;-59
2023/09/14 02:42:17;;;;;;;10.03;5.43;;;;;;;20.74;64.11;99634.56;5091733;28;20273;-60
2023/09/14 02:44:44;;;;;;;11.93;5.50;;;;;;;20.71;64.10;99633.19;5091436;28;20191;-59
2023/09/14 02:47:12;;;;;;;13.10;5.97;;;;;;;20.72;64.43;99626.72;5091455;28;20716;-59
2023/09/14 02:49:39;;;;;;;11.10;5.60;;;;;;;20.73;64.51;99628.34;5091624;28;20191;-59
2023/09/14 02:52:07;;;;;;;16.50;5.67;;;;;;;20.66;65.02;99627.72;5091800;28;20282;-59
2023/09/14 02:54:34;;;;;;;9.93;5.83;;;;;;;20.68;64.95;99625.59;5091483;28;20294;-59
2023/09/14 02:57:01;;;;;;;12.97;6.43;;;;;;;20.69;64.89;99632.63;5092228;28;20202;-58
2023/09/14 02:59:27;;;;;;;11.50;6.37;;;;;;;20.65;65.64;99620.72;5091869;28;20192;-59
2023/09/14 03:01:54;;;;;;;9.37;6.30;;;;;;;20.67;65.52;99630.19;5092184;28;20260;-58
2023/09/14 03:04:21;;;;;;;11.43;6.30;;;;;;;20.71;65.53;99635.06;5091800;28;20658;-59
2023/09/14 03:06:49;;;;;;;13.17;6.30;;;;;;;20.68;65.77;99625.59;5091145;28;20210;-58
2023/09/14 03:09:17;;;;;;;12.10;6.63;;;;;;;20.71;65.61;99625.09;5071575;28;20280;-59
2023/09/14 03:11:43;;;;;;;13.43;6.47;;;;;;;20.70;65.82;99628.84;5071523;28;20195;-59
2023/09/14 03:14:11;;;;;;;17.73;6.40;;;;;;;20.68;66.03;99620.22;5071688;28;20191;-58
2023/09/14 03:16:38;;;;;;;15.20;6.83;;;;;;;20.67;66.37;99629.38;5071588;28;20192;-58
2023/09/14 03:19:05;;;;;;;15.50;7.20;;;;;;;20.63;66.53;99624.75;5071040;28;20249;-58
2023/09/14 03:21:31;;;;;;;15.40;6.47;;;;;;;20.64;65.90;99624.50;5071121;28;20249;-58
2023/09/14 03:23:58;;;;;;;24.30;7.93;;;;;;;20.59;65.75;99621.75;5071381;28;20265;-60
2023/09/14 03:26:27;;;;;;;23.50;7.40;;;;;;;20.47;66.14;99629.22;5071330;28;20579;-58
2023/09/14 03:28:54;;;;;;;17.67;6.93;;;;;;;20.29;67.11;99624.16;5071125;28;20281;-59
2023/09/14 03:31:20;;;;;;;18.47;6.80;;;;;;;20.18;67.95;99625.16;5071079;28;20225;-59
2023/09/14 03:33:48;;;;;;;18.43;6.90;;;;;;;20.17;68.17;99620.81;5081387;28;20256;-60
2023/09/14 03:36:15;;;;;;;15.83;7.07;;;;;;;20.20;68.18;99606.81;5088815;28;20287;-59
2023/09/14 03:38:41;;;;;;;10.40;6.67;;;;;;;20.23;67.80;99609.84;5088142;28;20602;-60
2023/09/14 03:41:08;;;;;;;11.93;6.40;;;;;;;20.23;68.28;99601.75;5088976;28;20284;-59
2023/09/14 03:43:36;;;;;;;7.67;5.50;;;;;;;20.24;68.10;99597.97;5088885;28;20199;-59
2023/09/14 03:46:02;;;;;;;15.50;7.07;;;;;;;20.25;68.06;99599.59;5089261;28;20195;-59
2023/09/14 03:48:29;;;;;;;18.57;7.20;;;;;;;20.23;68.43;99590.97;5088795;28;20259;-59
2023/09/14 03:50:58;;;;;;;10.73;7.53;;;;;;;20.22;68.75;99593.91;5088771;28;20196;-59
2023/09/14 03:53:25;;;;;;;14.30;6.70;;;;;;;20.22;68.85;99607.41;5089733;28;20259;-59
2023/09/14 03:55:52;;;;;;;14.13;6.57;;;;;;;20.17;68.64;99610.03;5089759;28;20198;-58
2023/09/14 03:58:19;;;;;;;18.47;7.00;;;;;;;20.17;69.37;99615.41;5091317;28;20191;-59
2023/09/14 04:00:47;;;;;;;26.97;7.90;;;;;;;20.23;68.86;99620.63;5090207;28;20248;-58
2023/09/14 04:03:13;;;;;;;23.93;7.70;;;;;;;20.28;68.92;99614.44;5091434;28;20210;-58
2023/09/14 04:05:40;;;;;;;30.43;8.00;;;;;;;20.30;69.11;99612.31;5090888;28;20245;-59
2023/09/14 04:08:08;;;;;;;31.20;9.47;;;;;;;20.33;69.06;99617.19;5079817;28;20262;-58
2023/09/14 04:10:37;;;;;;;28.27;8.37;;;;;;;20.33;69.42;99612.63;5070765;28;20295;-58
2023/09/14 04:13:26;;;;;;;36.53;8.80;;;;;;;20.39;69.83;99621.59;5071095;28;20275;-59
2023/09/14 04:15:55;;;;;;;26.50;7.53;;;;;;;20.46;69.58;99606.00;5071091;28;20279;-58
2023/09/14 04:18:22;;;;;;;15.10;7.60;;;;;;;20.53;69.23;99612.81;5070426;28;20235;-58
2023/09/14 04:20:49;;;;;;;21.93;7.20;;;;;;;20.63;69.29;99614.78;5070707;28;20592;-59
2023/09/14 04:23:16;;;;;;;24.10;7.67;;;;;;;20.74;69.12;99616.47;5073768;28;20200;-60
2023/09/14 04:25:44;;;;;;;11.70;6.27;;;;;;;20.85;69.43;99628.97;5091808;28;20271;-61
2023/09/14 04:28:12;;;;;;;28.37;7.57;;;;;;;20.98;68.48;99628.56;5094412;28;20314;-58
2023/09/14 04:30:44;;;;;;;32.10;7.70;;;;;;;21.20;67.42;99633.84;5094512;28;20278;-58
2023/09/14 04:33:13;;;;;;;27.03;7.77;;;;;;;21.46;66.94;99638.28;5094833;28;20270;-58
2023/09/14 04:35:40;;;;;;;22.30;7.73;;;;;;;21.62;65.30;99632.72;5094291;28;20195;-58
2023/09/14 04:38:07;;;;;;;12.37;6.27;;;;;;;21.71;66.09;99636.56;5094608;28;20276;-58
2023/09/14 04:40:37;;;;;;;19.17;6.83;;;;;;;21.88;65.27;99631.75;5094238;28;20229;-59
2023/09/14 04:43:04;;;;;;;18.70;7.47;;;;;;;22.37;64.34;99630.22;5094026;28;20191;-62
2023/09/14 04:45:30;;;;;;;17.53;6.93;;;;;;;23.03;59.94;99637.31;5093980;28;20769;-62
2023/09/14 04:47:57;;;;;;;12.87;6.67;;;;;;;23.63;59.69;99639.91;5093363;28;20578;-62
2023/09/14 04:50:25;;;;;;;17.17;6.10;;;;;;;24.25;57.33;99642.88;5085967;28;20277;-61
2023/09/14 04:52:52;;;;;;;15.87;6.40;;;;;;;24.81;54.81;99652.28;5073582;28;20195;-61
2023/09/14 04:55:19;;;;;;;12.43;5.93;;;;;;;25.32;53.03;99657.25;5073520;28;20195;-64
2023/09/14 04:57:46;;;;;;;24.87;6.90;;;;;;;25.72;50.46;99651.38;5073246;28;20184;-64
2023/09/14 05:00:14;;;;;;;15.90;7.00;;;;;;;25.97;50.11;99653.81;5073693;28;20204;-65
2023/09/14 05:02:41;;;;;;;18.47;6.77;;;;;;;26.22;49.56;99661.63;5088093;28;20195;-64
2023/09/14 05:05:10;;;;;;;13.13;6.47;;;;;;;26.59;47.87;99665.19;5091402;28;20270;-67
2023/09/14 05:07:39;;;;;;;14.77;6.47;;;;;;;26.78;46.93;99670.63;5081363;28;20212;-66
2023/09/14 05:10:07;;;;;;;23.00;7.80;;;;;;;26.73;45.65;99668.78;5067933;28;20259;-66
2023/09/14 05:12:34;;;;;;;10.63;5.93;;;;;;;26.59;47.39;99667.09;5089489;28;20209;-64
2023/09/14 05:15:01;;;;;;;14.83;6.67;;;;;;;26.73;45.64;99670.69;5086354;28;20199;-63
2023/09/14 05:17:27;;;;;;;9.40;6.17;;;;;;;26.52;45.78;99678.34;5085923;28;20196;-62
2023/09/14 05:19:54;;;;;;;15.10;7.23;;;;;;;26.06;47.05;99680.09;5089718;28;20252;-66
2023/09/14 05:22:21;;;;;;;9.90;6.50;;;;;;;25.85;49.02;99677.88;5089634;28;20272;-62
2023/09/14 05:24:49;;;;;;;12.00;5.80;;;;;;;25.68;48.85;99677.56;5083157;28;20195;-63
2023/09/14 05:27:17;;;;;;;8.27;6.03;;;;;;;25.55;49.63;99680.97;5081517;28;20237;-63
2023/09/14 05:29:44;;;;;;;9.70;6.33;;;;;;;25.30;50.26;99687.47;5080708;28;20219;-62
2023/09/14 05:32:11;;;;;;;11.37;6.43;;;;;;;25.34;49.90;99679.53;5083053;28;20629;-60
2023/09/14 05:34:38;;;;;;;9.37;5.93;;;;;;;25.26;50.68;99677.41;5077238;28;20203;-61
2023/09/14 05:37:04;;;;;;;13.90;7.13;;;;;;;25.29;50.96;99682.31;5076778;28;20191;-61
2023/09/14 05:39:31;;;;;;;18.33;7.33;;;;;;;25.36;50.70;99680.88;5076924;28;20202;-61
2023/09/14 05:41:59;;;;;;;24.17;7.20;;;;;;;25.39;50.60;99684.94;5077229;28;20226;-60
2023/09/14 05:44:26;;;;;;;17.17;7.70;;;;;;;25.52;50.91;99679.59;5089713;28;20274;-61
2023/09/14 05:46:53;;;;;;;23.53;7.77;;;;;;;25.81;49.66;99676.84;5091110;28;20202;-60
2023/09/14 05:49:20;;;;;;;10.60;9.20;;;;;;;25.80;49.56;99675.22;5081978;28;20243;-60
2023/09/14 05:51:46;;;;;;;16.77;9.50;;;;;;;26.03;49.87;99679.84;5082054;28;20245;-60
2023/09/14 05:54:13;;;;;;;17.97;7.90;;;;;;;26.66;47.80;99673.78;5083400;28;20196;-60
2023/09/14 05:56:39;;;;;;;11.93;7.73;;;;;;;27.03;46.63;99672.94;5081467;28;20218;-62
2023/09/14 05:59:08;;;;;;;9.27;7.10;;;;;;;27.77;44.88;99673.44;5080709;28;20249;-60
2023/09/14 06:01:36;;;;;;;9.73;6.50;;;;;;;28.18;43.12;99673.44;5083483;28;20192;-60
2023/09/14 06:04:03;;;;;;;11.40;7.43;;;;;;;28.77;41.27;99681.38;5082964;28;20191;-61
2023/09/14 06:06:29;;;;;;;12.70;6.37;;;;;;;28.86;41.28;99679.50;5082984;28;20184;-61
2023/09/14 06:08:56;;;;;;;18.47;7.47;;;;;;;28.75;41.28;99678.16;5081652;28;20219;-61
2023/09/14 06:11:23;;;;;;;11.77;6.80;;;;;;;28.62;42.08;99670.81;5082393;28;20196;-60
2023/09/14 06:13:50;;;;;;;12.00;6.17;;;;;;;28.74;41.65;99665.59;5081597;28;20266;-60
2023/09/14 06:16:18;;;;;;;10.73;6.27;;;;;;;29.17;40.49;99670.28;5083633;28;20184;-61
2023/09/14 06:18:46;;;;;;;10.43;6.03;;;;;;;29.50;39.51;99678.97;5070517;28;20663;-61
2023/09/14 06:21:13;;;;;;;25.53;7.30;;;;;;;29.42;39.32;99667.97;5072248;28;20196;-62
2023/09/14 06:23:40;;;;;;;14.40;6.20;;;;;;;29.12;40.51;99661.41;5072096;28;20250;-61
2023/09/14 06:26:07;;;;;;;17.30;7.10;;;;;;;28.70;40.99;99665.41;5072554;28;20265;-61
2023/09/14 06:28:34;;;;;;;30.50;7.97;;;;;;;28.84;40.92;99671.63;5072305;28;20196;-61
2023/09/14 06:31:00;;;;;;;19.30;5.80;;;;;;;29.20;40.49;99680.59;5072165;28;20203;-61
2023/09/14 06:33:28;;;;;;;13.23;7.03;;;;;;;29.01;40.76;99682.72;5072272;28;20192;-61
2023/09/14 06:35:55;;;;;;;11.23;6.63;;;;;;;28.72;41.37;99678.78;5072063;28;20247;-61
2023/09/14 06:38:22;;;;;;;13.97;5.73;;;;;;;28.92;41.13;99679.06;5072229;28;20580;-61
2023/09/14 06:40:49;;;;;;;36.20;6.90;;;;;;;29.41;39.95;99680.88;5084857;28;20255;-61
2023/09/14 06:43:15;;;;;;;9.37;6.53;;;;;;;29.57;39.61;99679.38;5092102;28;20682;-62
2023/09/14 06:45:43;;;;;;;11.13;6.87;;;;;;;29.75;39.24;99688.44;5091762;28;20739;-61
2023/09/14 06:48:10;;;;;;;32.10;8.47;;;;;;;29.85;39.00;99693.66;5092270;28;20195;-61
2023/09/14 06:50:38;;;;;;;14.37;6.20;;;;;;;29.81;39.01;99690.75;5092575;28;20288;-61
2023/09/14 06:53:04;;;;;;;11.63;6.33;;;;;;;30.00;38.53;99698.69;5091933;28;20195;-60
2023/09/14 06:55:31;;;;;;;10.50;6.10;;;;;;;30.27;37.63;99693.78;5092210;28;20195;-61
2023/09/14 06:57:59;;;;;;;15.17;6.00;;;;;;;30.52;37.34;99697.66;5092126;28;20202;-61
2023/09/14 07:00:26;;;;;;;10.07;6.80;;;;;;;30.18;37.65;99692.97;5091757;28;20659;-61
2023/09/14 07:02:54;;;;;;;10.40;6.73;;;;;;;30.27;37.30;99688.31;5092252;28;20191;-61
2023/09/14 07:05:20;;;;;;;13.60;6.80;;;;;;;30.43;36.68;99686.72;5092429;28;20245;-61
2023/09/14 07:07:48;;;;;;;13.77;6.70;;;;;;;30.21;37.68;99692.31;5083390;28;20254;-61
2023/09/14 07:10:15;;;;;;;15.70;6.47;;;;;;;30.22;37.86;99684.91;5071664;28;20269;-62
2023/09/14 07:12:42;;;;;;;15.97;7.00;;;;;;;30.25;36.99;99687.81;5071590;28;20549;-61
2023/09/14 07:15:10;;;;;;;9.00;6.73;;;;;;;30.46;36.50;99686.03;5071667;28;20223;-61
2023/09/14 07:17:36;;;;;;;15.37;7.50;;;;;;;30.60;36.41;99681.22;5071493;28;20655;-61
2023/09/14 07:20:04;;;;;;;23.47;7.20;;;;;;;30.76;36.40;99690.63;5071472;28;20571;-61
2023/09/14 07:22:31;;;;;;;13.77;6.27;;;;;;;30.99;35.88;99688.50;5071470;28;20573;-61
2023/09/14 07:24:59;;;;;;;30.47;8.03;;;;;;;31.22;34.69;99685.22;5071538;28;20663;-61
2023/09/14 07:27:26;;;;;;;19.77;7.50;;;;;;;31.45;35.31;99681.16;5071637;28;20192;-62
2023/09/14 07:29:53;;;;;;;12.23;7.30;;;;;;;31.37;34.49;99690.22;5071593;28;20219;-61
2023/09/14 07:32:20;;;;;;;24.77;8.13;;;;;;;31.24;35.22;99685.72;5071435;28;20192;-61
2023/09/14 07:34:46;;;;;;;19.57;7.33;;;;;;;31.10;35.69;99676.84;5085071;28;20254;-61
2023/09/14 07:37:13;;;;;;;21.03;7.77;;;;;;;31.30;34.76;99675.38;5071286;28;20246;-62
2023/09/14 07:39:40;;;;;;;16.60;6.77;;;;;;;31.54;34.64;99676.44;5071664;28;20204;-61
2023/09/14 07:42:08;;;;;;;17.23;8.03;;;;;;;31.73;33.93;99679.56;5071242;28;20317;-62
2023/09/14 07:44:35;;;;;;;14.33;7.83;;;;;;;31.42;34.32;99665.31;5069705;28;20204;-61
2023/09/14 07:47:01;;;;;;;21.90;8.20;;;;;;;31.07;35.21;99672.00;5070361;28;20264;-63
2023/09/14 07:49:28;;;;;;;16.33;7.37;;;;;;;31.06;35.20;99673.16;5070472;28;20257;-61
2023/09/14 07:51:55;;;;;;;17.97;8.00;;;;;;;31.00;35.33;99668.97;5070777;28;20204;-61
2023/09/14 07:54:22;;;;;;;11.37;7.07;;;;;;;30.71;35.63;99666.09;5070313;28;20192;-62
2023/09/14 07:56:48;;;;;;;44.97;9.50;;;;;;;30.66;36.21;99662.69;5071760;28;20196;-61
2023/09/14 07:59:16;;;;;;;37.40;9.03;;;;;;;30.74;36.24;99665.44;5073559;28;20556;-62
2023/09/14 08:01:43;;;;;;;13.27;7.43;;;;;;;30.84;36.41;99669.78;5073861;28;20198;-62
2023/09/14 08:04:10;;;;;;;19.17;7.70;;;;;;;31.07;36.36;99669.25;5074051;28;20663;-62
2023/09/14 08:06:36;;;;;;;29.90;8.33;;;;;;;31.22;35.33;99668.75;5075262;28;20265;-61
2023/09/14 08:09:03;;;;;;;11.57;7.23;;;;;;;31.03;35.49;99665.56;5074917;28;20261;-61
2023/09/14 08:11:33;;;;;;;14.87;7.70;;;;;;;30.93;35.61;99656.84;5075107;28;20192;-61
2023/09/14 08:13:59;;;;;;;16.07;7.57;;;;;;;31.07;35.76;99660.22;5075114;28;20192;-61
2023/09/14 08:16:30;;;;;;;14.17;7.87;;;;;;;31.24;35.19;99641.78;5075028;28;20188;-61
2023/09/14 08:18:57;;;;;;;12.73;7.20;;;;;;;30.97;36.18;99653.16;5073018;28;20751;-62
2023/09/14 08:21:24;;;;;;;16.33;7.77;;;;;;;30.80;36.18;99650.44;5073676;28;20200;-62
2023/09/14 08:23:51;;;;;;;12.50;7.90;;;;;;;30.47;36.59;99645.72;5073983;28;20628;-62
2023/09/14 08:26:18;;;;;;;8.53;7.43;;;;;;;30.14;37.14;99637.19;5073929;28;20627;-62
2023/09/14 08:28:44;;;;;;;14.37;7.43;;;;;;;30.36;36.89;99642.50;5073707;28;20656;-62
2023/09/14 08:31:11;;;;;;;10.87;6.33;;;;;;;30.73;36.56;99630.91;5074183;28;20310;-62
2023/09/14 08:33:39;;;;;;;12.83;6.90;;;;;;;31.15;36.15;99626.47;5074094;28;20191;-61
2023/09/14 08:36:06;;;;;;;14.47;8.00;;;;;;;31.25;34.73;99632.44;5074442;28;20656;-61
2023/09/14 08:38:33;;;;;;;14.17;7.23;;;;;;;31.12;35.40;99627.94;5074540;28;20196;-61
2023/09/14 08:41:04;;;;;;;11.97;6.20;;;;;;;31.27;36.18;99624.66;5074923;28;20297;-61
2023/09/14 08:43:33;;;;;;;12.23;5.97;;;;;;;31.61;34.50;99624.50;5074560;28;20589;-62
2023/09/14 08:46:01;;;;;;;6.67;5.87;;;;;;;31.92;33.76;99625.03;5074593;28;20192;-63
2023/09/14 08:48:31;;;;;;;9.43;5.80;;;;;;;32.21;33.75;99616.72;5074118;28;20194;-62
2023/09/14 08:51:01;;;;;;;11.03;5.80;;;;;;;32.46;33.34;99615.75;5074408;28;20265;-62
2023/09/14 08:53:28;;;;;;;9.63;4.67;;;;;;;32.59;33.18;99617.41;5074301;28;20188;-62
2023/09/14 08:55:55;;;;;;;16.00;5.43;;;;;;;32.68;32.73;99612.66;5073573;28;20253;-62
2023/09/14 08:58:23;;;;;;;31.40;6.18;;;;;;;32.57;32.51;99607.88;5073897;28;20258;-62
2023/09/14 09:00:53;;;;;;;14.47;5.47;;;;;;;32.64;32.56;99603.47;5074155;28;20200;-61
2023/09/14 09:03:20;;;;;;;10.97;5.50;;;;;;;32.55;33.25;99601.94;5073751;28;20278;-62
2023/09/14 09:05:48;;;;;;;15.77;5.57;;;;;;;32.53;32.89;99599.50;5087151;28;20237;-61
2023/09/14 09:08:17;;;;;;;8.10;4.97;;;;;;;32.65;32.11;99594.06;5081409;28;20675;-62
2023/09/14 09:10:44;;;;;;;10.37;4.77;;;;;;;32.79;32.14;99588.25;5084180;28;20238;-61
2023/09/14 09:13:12;;;;;;;6.03;4.93;;;;;;;32.88;31.86;99595.31;5082677;28;20188;-62
2023/09/14 09:15:39;;;;;;;7.05;4.60;;;;;;;32.74;31.63;99592.00;5083180;28;20546;-62
2023/09/14 09:18:07;;;;;;;14.95;5.47;;;;;;;32.92;31.20;99582.44;5084354;28;20701;-62
2023/09/14 09:20:35;;;;;;;15.32;4.95;;;;;;;33.04;31.52;99576.97;5076049;28;20633;-62
2023/09/14 09:23:02;;;;;;;23.33;5.90;;;;;;;33.06;31.68;99571.94;5077465;28;20660;-63
2023/09/14 09:25:43;;;;;;;10.32;5.47;;;;;;;33.21;31.20;99579.53;5082851;28;20249;-62
2023/09/14 09:28:09;;;;;;;7.13;4.47;;;;;;;33.42;31.24;99573.13;5083467;28;20216;-62
2023/09/14 09:30:37;;;;;;;14.70;6.13;;;;;;;33.40;30.96;99570.75;5079240;28;20288;-62
2023/09/14 09:33:04;;;;;;;8.25;5.30;;;;;;;33.37;31.20;99565.09;5073612;28;20196;-62
2023/09/14 09:35:34;;;;;;;7.13;5.97;;;;;;;33.53;30.96;99561.31;5080044;28;20280;-63
2023/09/14 09:38:10;;;;;;;11.30;5.57;;;;;;;33.48;30.62;99556.06;5077199;28;20196;-62
2023/09/14 09:40:42;;;;;;;18.63;6.20;;;;;;;33.17;31.16;99551.09;5078038;28;20223;-62
2023/09/14 09:43:09;;;;;;;11.20;6.25;;;;;;;33.33;30.53;99549.25;5072323;28;20180;-62
2023/09/14 09:45:40;;;;;;;7.28;5.88;;;;;;;33.38;30.64;99551.00;5079821;28;20195;-62
2023/09/14 09:48:09;;;;;;;13.60;5.68;;;;;;;33.61;30.27;99548.56;5087514;28;20275;-63
2023/09/14 09:50:36;;;;;;;9.30;5.35;;;;;;;33.49;29.75;99545.81;5083794;28;20326;-63
2023/09/14 09:53:03;;;;;;;13.18;5.63;;;;;;;33.33;30.12;99538.25;5093028;28;20268;-62
2023/09/14 09:55:30;;;;;;;13.40;6.13;;;;;;;33.22;30.76;99539.84;5092778;28;20213;-62
2023/09/14 09:58:00;;;;;;;11.60;5.93;;;;;;;33.27;30.95;99533.28;5093137;28;20197;-62
2023/09/14 10:00:31;;;;;;;12.30;5.22;;;;;;;33.42;30.07;99537.31;5093065;28;20340;-62
2023/09/14 10:02:58;;;;;;;11.18;5.13;;;;;;;33.37;30.10;99534.81;5084841;28;20565;-64
2023/09/14 10:05:29;;;;;;;8.70;5.72;;;;;;;33.29;30.19;99531.00;5072041;28;20249;-62
2023/09/14 10:07:57;;;;;;;8.40;5.20;;;;;;;33.30;30.61;99527.91;5075194;28;20204;-63
2023/09/14 10:10:25;;;;;;;10.38;5.43;;;;;;;33.33;30.52;99525.63;5081286;28;20757;-63
2023/09/14 10:12:54;;;;;;;9.30;5.05;;;;;;;33.02;30.61;99523.41;5079930;28;20199;-62
2023/09/14 10:15:25;;;;;;;9.43;5.15;;;;;;;33.00;30.73;99512.72;5078812;28;20196;-63
2023/09/14 10:17:54;;;;;;;14.98;5.32;;;;;;;32.92;30.70;99516.38;5078587;28;20181;-62
2023/09/14 10:20:22;;;;;;;8.15;5.72;;;;;;;32.85;31.22;99512.59;5079826;28;20867;-63
2023/09/14 10:22:49;;;;;;;11.40;5.50;;;;;;;32.95;30.35;99510.19;5081428;28;20215;-61
2023/09/14 10:25:17;;;;;;;12.03;5.37;;;;;;;32.42;31.24;99510.28;5082247;28;20195;-61
2023/09/14 10:27:44;;;;;;;13.63;5.43;;;;;;;32.43;31.39;99502.84;5077780;28;20275;-61
2023/09/14 10:30:16;;;;;;;9.23;5.60;;;;;;;32.50;31.52;99503.91;5081241;28;20264;-66
2023/09/14 10:32:47;;;;;;;10.07;5.85;;;;;;;32.58;30.93;99494.75;5083794;28;20196;-62
2023/09/14 10:35:14;;;;;;;12.30;5.50;;;;;;;32.57;31.11;99490.41;5080318;28;20183;-61
2023/09/14 10:37:45;;;;;;;10.32;5.65;;;;;;;32.59;31.40;99490.06;5081642;28;20188;-61
2023/09/14 10:40:12;;;;;;;11.70;5.22;;;;;;;32.59;31.71;99485.34;5080532;28;20671;-60
2023/09/14 10:42:40;;;;;;;10.25;5.28;;;;;;;32.81;31.71;99487.72;5080924;28;20202;-61
2023/09/14 10:45:09;;;;;;;7.60;5.10;;;;;;;33.09;30.96;99493.34;5068366;28;20184;-60
2023/09/14 10:47:39;;;;;;;10.82;5.53;;;;;;;33.14;30.81;99491.19;5070603;28;20268;-60
2023/09/14 10:50:10;;;;;;;9.48;5.68;;;;;;;32.93;30.60;99482.22;5070456;28;20239;-61
2023/09/14 10:52:40;;;;;;;7.82;5.03;;;;;;;33.00;30.64;99490.69;5079827;28;20613;-60
2023/09/14 10:55:08;;;;;;;11.63;5.85;;;;;;;32.91;30.51;99481.75;5081473;28;20191;-60
2023/09/14 10:57:36;;;;;;;9.65;5.47;;;;;;;32.88;30.58;99487.16;5080819;28;20283;-60
2023/09/14 11:00:06;;;;;;;11.55;5.93;;;;;;;32.99;30.84;99477.31;5079433;28;20192;-59
2023/09/14 11:02:54;;;;;;;13.65;5.72;;;;;;;33.09;30.78;99474.91;5080535;28;20641;-61
2023/09/14 11:05:24;;;;;;;10.10;5.28;;;;;;;33.16;30.32;99472.34;5080040;28;20216;-61
2023/09/14 11:07:56;;;;;;;15.30;5.68;;;;;;;32.94;30.65;99480.25;5079795;28;20191;-61
2023/09/14 11:10:24;;;;;;;8.63;5.70;;;;;;;32.84;30.58;99475.22;5082066;28;20252;-61
2023/09/14 11:12:51;;;;;;;10.57;5.68;;;;;;;32.67;30.54;99459.69;5080293;28;20196;-61
2023/09/14 11:15:21;;;;;;;12.13;5.63;;;;;;;32.74;30.76;99465.44;5076192;28;20188;-60
2023/09/14 11:17:49;;;;;;;10.90;5.38;;;;;;;32.75;31.19;99464.28;5082070;28;20271;-61
2023/09/14 11:20:40;;;;;;;9.60;5.45;;;;;;;32.79;30.97;99456.94;5088213;28;20289;-60
2023/09/14 11:23:08;;;;;;;9.80;5.70;;;;;;;32.83;30.99;99454.34;5074207;28;20199;-62
2023/09/14 11:25:36;;;;;;;12.98;5.82;;;;;;;32.78;30.06;99454.53;5081285;28;20274;-61
2023/09/14 11:28:04;;;;;;;11.77;5.07;;;;;;;32.56;30.94;99441.22;5079546;28;20282;-62
2023/09/14 11:30:31;;;;;;;7.75;5.18;;;;;;;32.56;31.04;99452.22;5078297;28;20237;-62